sensor_id;sensor_type;location;lat;lon;timestamp;temperature;humidity
19242;DHT22;9755;47.790;9.620;2023-06-10T00:00:10;15.90;96.90
19242;DHT22;9755;47.790;9.620;2023-06-10T00:02:40;15.80;97.70
19242;DHT22;9755;47.790;9.620;2023-06-10T00:05:12;15.80;98.00
19242;DHT22;9755;47.790;9.620;2023-06-10T00:07:41;15.80;98.10
19242;DHT22;9755;47.790;9.620;2023-06-10T00:10:09;15.80;98.60
19242;DHT22;9755;47.790;9.620;2023-06-10T00:12:36;15.80;98.90
19242;DHT22;9755;47.790;9.620;2023-06-10T00:15:05;15.80;99.30
19242;DHT22;9755;47.790;9.620;2023-06-10T00:17:32;15.80;99.50
19242;DHT22;9755;47.790;9.620;2023-06-10T00:19:59;15.70;99.80
19242;DHT22;9755;47.790;9.620;2023-06-10T00:22:31;15.70;99.90
19242;DHT22;9755;47.790;9.620;2023-06-10T00:25:00;15.60;99.90
19242;DHT22;9755;47.790;9.620;2023-06-10T00:27:29;15.60;99.90
19242;DHT22;9755;47.790;9.620;2023-06-10T00:30:00;15.60;99.90
19242;DHT22;9755;47.790;9.620;2023-06-10T00:32:27;15.60;99.90
19242;DHT22;9755;47.790;9.620;2023-06-10T00:34:54;15.60;99.90
19242;DHT22;9755;47.790;9.620;2023-06-10T00:37:21;15.50;99.90
19242;DHT22;9755;47.790;9.620;2023-06-10T00:39:50;15.50;99.90
19242;DHT22;9755;47.790;9.620;2023-06-10T00:42:17;15.50;99.90
19242;DHT22;9755;47.790;9.620;2023-06-10T00:44:44;15.40;99.90
19242;DHT22;9755;47.790;9.620;2023-06-10T00:47:11;15.50;99.90
19242;DHT22;9755;47.790;9.620;2023-06-10T00:49:40;15.40;99.90
19242;DHT22;9755;47.790;9.620;2023-06-10T00:52:09;15.40;99.90
19242;DHT22;9755;47.790;9.620;2023-06-10T00:54:38;15.40;99.90
19242;DHT22;9755;47.790;9.620;2023-06-10T00:57:10;15.40;99.90
19242;DHT22;9755;47.790;9.620;2023-06-10T00:59:39;15.30;99.90
19242;DHT22;9755;47.790;9.620;2023-06-10T01:02:06;15.30;99.90
19242;DHT22;9755;47.790;9.620;2023-06-10T01:04:35;15.30;99.90
19242;DHT22;9755;47.790;9.620;2023-06-10T01:07:09;15.20;99.90
19242;DHT22;9755;47.790;9.620;2023-06-10T01:09:45;15.20;99.90
19242;DHT22;9755;47.790;9.620;2023-06-10T01:12:24;15.20;99.90
19242;DHT22;9755;47.790;9.620;2023-06-10T01:14:54;15.20;99.90
19242;DHT22;9755;47.790;9.620;2023-06-10T01:17:22;15.20;99.90
19242;DHT22;9755;47.790;9.620;2023-06-10T01:19:55;15.10;99.90
19242;DHT22;9755;47.790;9.620;2023-06-10T01:22:25;15.10;99.90
19242;DHT22;9755;47.790;9.620;2023-06-10T01:24:54;15.00;99.90
19242;DHT22;9755;47.790;9.620;2023-06-10T01:27:26;15.00;99.90
19242;DHT22;9755;47.790;9.620;2023-06-10T01:29:59;15.00;99.90
19242;DHT22;9755;47.790;9.620;2023-06-10T01:32:33;15.00;99.90
19242;DHT22;9755;47.790;9.620;2023-06-10T01:35:02;14.90;99.90
19242;DHT22;9755;47.790;9.620;2023-06-10T01:37:33;15.00;99.90
19242;DHT22;9755;47.790;9.620;2023-06-10T01:40:02;14.90;99.90
19242;DHT22;9755;47.790;9.620;2023-06-10T01:42:31;14.90;99.90
19242;DHT22;9755;47.790;9.620;2023-06-10T01:44:59;14.90;99.90
19242;DHT22;9755;47.790;9.620;2023-06-10T01:47:26;14.80;99.90
19242;DHT22;9755;47.790;9.620;2023-06-10T01:49:53;14.90;99.90
19242;DHT22;9755;47.790;9.620;2023-06-10T01:52:20;14.90;99.90
19242;DHT22;9755;47.790;9.620;2023-06-10T01:54:48;14.90;99.90
19242;DHT22;9755;47.790;9.620;2023-06-10T01:57:15;14.80;99.90
19242;DHT22;9755;47.790;9.620;2023-06-10T01:59:42;14.80;99.90
19242;DHT22;9755;47.790;9.620;2023-06-10T02:02:10;14.80;99.90
19242;DHT22;9755;47.790;9.620;2023-06-10T02:04:39;14.80;99.90
19242;DHT22;9755;47.790;9.620;2023-06-10T02:07:06;14.80;99.90
19242;DHT22;9755;47.790;9.620;2023-06-10T02:09:33;14.70;99.90
19242;DHT22;9755;47.790;9.620;2023-06-10T02:12:03;14.60;99.90
19242;DHT22;9755;47.790;9.620;2023-06-10T02:14:31;14.60;99.90
19242;DHT22;9755;47.790;9.620;2023-06-10T02:16:58;14.60;99.90
19242;DHT22;9755;47.790;9.620;2023-06-10T02:19:26;14.60;99.90
19242;DHT22;9755;47.790;9.620;2023-06-10T02:21:53;14.60;99.90
19242;DHT22;9755;47.790;9.620;2023-06-10T02:24:21;14.60;99.90
19242;DHT22;9755;47.790;9.620;2023-06-10T02:26:48;14.50;99.90
19242;DHT22;9755;47.790;9.620;2023-06-10T02:29:17;14.50;99.90
19242;DHT22;9755;47.790;9.620;2023-06-10T02:31:44;14.50;99.90
19242;DHT22;9755;47.790;9.620;2023-06-10T02:34:11;14.40;99.90
19242;DHT22;9755;47.790;9.620;2023-06-10T02:36:38;14.40;99.90
19242;DHT22;9755;47.790;9.620;2023-06-10T02:39:05;14.40;99.90
19242;DHT22;9755;47.790;9.620;2023-06-10T02:41:32;14.40;99.90
19242;DHT22;9755;47.790;9.620;2023-06-10T02:43:59;14.30;99.90
19242;DHT22;9755;47.790;9.620;2023-06-10T02:46:28;14.30;99.90
19242;DHT22;9755;47.790;9.620;2023-06-10T02:48:55;14.30;99.90
19242;DHT22;9755;47.790;9.620;2023-06-10T02:51:22;14.20;99.90
19242;DHT22;9755;47.790;9.620;2023-06-10T02:53:49;14.20;99.90
19242;DHT22;9755;47.790;9.620;2023-06-10T02:56:16;14.20;99.90
19242;DHT22;9755;47.790;9.620;2023-06-10T02:58:44;14.20;99.90
19242;DHT22;9755;47.790;9.620;2023-06-10T03:01:12;14.10;99.90
19242;DHT22;9755;47.790;9.620;2023-06-10T03:03:41;14.00;99.90
19242;DHT22;9755;47.790;9.620;2023-06-10T03:06:09;14.00;99.90
19242;DHT22;9755;47.790;9.620;2023-06-10T03:08:38;14.00;99.90
19242;DHT22;9755;47.790;9.620;2023-06-10T03:11:05;13.90;99.90
19242;DHT22;9755;47.790;9.620;2023-06-10T03:13:33;13.80;99.90
19242;DHT22;9755;47.790;9.620;2023-06-10T03:16:00;13.80;99.90
19242;DHT22;9755;47.790;9.620;2023-06-10T03:18:28;13.80;99.90
19242;DHT22;9755;47.790;9.620;2023-06-10T03:20:57;13.70;99.90
19242;DHT22;9755;47.790;9.620;2023-06-10T03:23:24;13.80;99.90
19242;DHT22;9755;47.790;9.620;2023-06-10T03:25:52;13.70;99.90
19242;DHT22;9755;47.790;9.620;2023-06-10T03:28:20;13.80;99.90
19242;DHT22;9755;47.790;9.620;2023-06-10T03:30:47;13.70;99.90
19242;DHT22;9755;47.790;9.620;2023-06-10T03:33:15;13.80;99.90
19242;DHT22;9755;47.790;9.620;2023-06-10T03:35:42;13.80;99.90
19242;DHT22;9755;47.790;9.620;2023-06-10T03:38:10;13.80;99.90
19242;DHT22;9755;47.790;9.620;2023-06-10T03:40:37;13.80;99.90
19242;DHT22;9755;47.790;9.620;2023-06-10T03:43:04;13.80;99.90
19242;DHT22;9755;47.790;9.620;2023-06-10T03:45:31;13.80;99.90
19242;DHT22;9755;47.790;9.620;2023-06-10T03:47:58;13.80;99.90
19242;DHT22;9755;47.790;9.620;2023-06-10T03:50:26;13.80;99.90
19242;DHT22;9755;47.790;9.620;2023-06-10T03:52:53;13.80;99.90
19242;DHT22;9755;47.790;9.620;2023-06-10T03:55:22;13.80;99.90
19242;DHT22;9755;47.790;9.620;2023-06-10T03:57:49;13.90;99.90
19242;DHT22;9755;47.790;9.620;2023-06-10T04:00:17;13.90;99.90
19242;DHT22;9755;47.790;9.620;2023-06-10T04:02:46;13.90;99.90
19242;DHT22;9755;47.790;9.620;2023-06-10T04:05:15;14.00;99.90
19242;DHT22;9755;47.790;9.620;2023-06-10T04:07:43;14.20;99.90
19242;DHT22;9755;47.790;9.620;2023-06-10T04:10:11;14.50;99.90
19242;DHT22;9755;47.790;9.620;2023-06-10T04:12:39;14.60;99.90
19242;DHT22;9755;47.790;9.620;2023-06-10T04:15:07;14.80;99.90
19242;DHT22;9755;47.790;9.620;2023-06-10T04:17:34;15.10;99.90
19242;DHT22;9755;47.790;9.620;2023-06-10T04:20:02;15.30;99.90
19242;DHT22;9755;47.790;9.620;2023-06-10T04:22:32;15.60;99.90
19242;DHT22;9755;47.790;9.620;2023-06-10T04:24:59;15.80;99.90
19242;DHT22;9755;47.790;9.620;2023-06-10T04:27:26;16.10;99.90
19242;DHT22;9755;47.790;9.620;2023-06-10T04:29:55;16.30;99.90
19242;DHT22;9755;47.790;9.620;2023-06-10T04:32:22;16.50;99.90
19242;DHT22;9755;47.790;9.620;2023-06-10T04:34:49;16.80;99.90
19242;DHT22;9755;47.790;9.620;2023-06-10T04:37:16;17.10;99.90
19242;DHT22;9755;47.790;9.620;2023-06-10T04:39:43;17.50;99.90
19242;DHT22;9755;47.790;9.620;2023-06-10T04:42:10;17.60;99.90
19242;DHT22;9755;47.790;9.620;2023-06-10T04:44:37;17.50;99.90
19242;DHT22;9755;47.790;9.620;2023-06-10T04:47:06;17.70;99.90
19242;DHT22;9755;47.790;9.620;2023-06-10T04:49:33;18.20;99.90
19242;DHT22;9755;47.790;9.620;2023-06-10T04:52:01;18.30;99.90
19242;DHT22;9755;47.790;9.620;2023-06-10T04:54:30;18.50;99.50
19242;DHT22;9755;47.790;9.620;2023-06-10T04:56:58;18.60;98.50
19242;DHT22;9755;47.790;9.620;2023-06-10T04:59:26;18.90;97.80
19242;DHT22;9755;47.790;9.620;2023-06-10T05:01:53;19.20;96.80
19242;DHT22;9755;47.790;9.620;2023-06-10T05:04:24;19.00;96.40
19242;DHT22;9755;47.790;9.620;2023-06-10T05:06:57;19.10;96.80
19242;DHT22;9755;47.790;9.620;2023-06-10T05:09:24;19.70;95.20
19242;DHT22;9755;47.790;9.620;2023-06-10T05:11:51;19.80;94.30
19242;DHT22;9755;47.790;9.620;2023-06-10T05:14:19;20.10;93.50
19242;DHT22;9755;47.790;9.620;2023-06-10T05:16:46;20.40;92.00
19242;DHT22;9755;47.790;9.620;2023-06-10T05:19:13;20.40;91.60
19242;DHT22;9755;47.790;9.620;2023-06-10T05:21:43;20.10;92.20
19242;DHT22;9755;47.790;9.620;2023-06-10T05:24:11;20.00;92.00
19242;DHT22;9755;47.790;9.620;2023-06-10T05:26:38;19.80;92.80
19242;DHT22;9755;47.790;9.620;2023-06-10T05:29:05;20.30;91.70
19242;DHT22;9755;47.790;9.620;2023-06-10T05:31:32;20.60;91.20
19242;DHT22;9755;47.790;9.620;2023-06-10T05:33:59;20.80;90.10
19242;DHT22;9755;47.790;9.620;2023-06-10T05:36:26;20.80;90.60
19242;DHT22;9755;47.790;9.620;2023-06-10T05:38:55;21.50;88.40
19242;DHT22;9755;47.790;9.620;2023-06-10T05:41:22;22.40;82.50
19242;DHT22;9755;47.790;9.620;2023-06-10T05:43:49;22.80;77.70
19242;DHT22;9755;47.790;9.620;2023-06-10T05:46:16;22.70;76.50
19242;DHT22;9755;47.790;9.620;2023-06-10T05:48:43;23.60;73.20
19242;DHT22;9755;47.790;9.620;2023-06-10T05:51:10;24.10;68.90
19242;DHT22;9755;47.790;9.620;2023-06-10T05:53:39;24.20;65.90
19242;DHT22;9755;47.790;9.620;2023-06-10T05:56:07;24.50;64.00
19242;DHT22;9755;47.790;9.620;2023-06-10T05:58:34;24.40;62.90
19242;DHT22;9755;47.790;9.620;2023-06-10T06:01:01;24.40;62.70
19242;DHT22;9755;47.790;9.620;2023-06-10T06:03:28;24.80;60.60
19242;DHT22;9755;47.790;9.620;2023-06-10T06:05:55;25.20;59.30
19242;DHT22;9755;47.790;9.620;2023-06-10T06:08:22;25.90;55.90
19242;DHT22;9755;47.790;9.620;2023-06-10T06:10:50;25.80;54.10
19242;DHT22;9755;47.790;9.620;2023-06-10T06:13:18;26.50;52.30
19242;DHT22;9755;47.790;9.620;2023-06-10T06:15:45;27.00;49.70
19242;DHT22;9755;47.790;9.620;2023-06-10T06:18:12;27.50;46.50
19242;DHT22;9755;47.790;9.620;2023-06-10T06:20:40;27.30;45.30
19242;DHT22;9755;47.790;9.620;2023-06-10T06:23:07;27.70;44.70
19242;DHT22;9755;47.790;9.620;2023-06-10T06:25:35;27.50;43.70
19242;DHT22;9755;47.790;9.620;2023-06-10T06:28:06;27.90;41.90
19242;DHT22;9755;47.790;9.620;2023-06-10T06:30:36;27.80;41.90
19242;DHT22;9755;47.790;9.620;2023-06-10T06:33:03;28.50;40.30
19242;DHT22;9755;47.790;9.620;2023-06-10T06:35:31;28.50;37.60
19242;DHT22;9755;47.790;9.620;2023-06-10T06:37:59;28.70;37.80
19242;DHT22;9755;47.790;9.620;2023-06-10T06:40:26;29.30;36.00
19242;DHT22;9755;47.790;9.620;2023-06-10T06:42:53;30.50;33.90
19242;DHT22;9755;47.790;9.620;2023-06-10T06:45:20;30.90;30.80
19242;DHT22;9755;47.790;9.620;2023-06-10T06:47:49;29.70;30.20
19242;DHT22;9755;47.790;9.620;2023-06-10T06:50:17;29.90;30.30
19242;DHT22;9755;47.790;9.620;2023-06-10T06:52:44;29.60;30.20
19242;DHT22;9755;47.790;9.620;2023-06-10T06:55:11;30.50;29.70
19242;DHT22;9755;47.790;9.620;2023-06-10T06:57:38;30.70;27.80
19242;DHT22;9755;47.790;9.620;2023-06-10T07:00:06;31.30;28.10
19242;DHT22;9755;47.790;9.620;2023-06-10T07:02:34;31.70;26.30
19242;DHT22;9755;47.790;9.620;2023-06-10T07:05:03;31.70;25.10
19242;DHT22;9755;47.790;9.620;2023-06-10T07:07:30;32.10;25.30
19242;DHT22;9755;47.790;9.620;2023-06-10T07:09:58;32.40;24.20
19242;DHT22;9755;47.790;9.620;2023-06-10T07:12:25;32.70;23.10
19242;DHT22;9755;47.790;9.620;2023-06-10T07:14:52;31.90;23.10
19242;DHT22;9755;47.790;9.620;2023-06-10T07:17:19;32.10;22.60
19242;DHT22;9755;47.790;9.620;2023-06-10T07:19:46;33.20;22.20
19242;DHT22;9755;47.790;9.620;2023-06-10T07:22:14;31.70;21.00
19242;DHT22;9755;47.790;9.620;2023-06-10T07:24:41;32.30;22.10
19242;DHT22;9755;47.790;9.620;2023-06-10T07:27:09;33.00;20.50
19242;DHT22;9755;47.790;9.620;2023-06-10T07:29:36;32.80;20.20
19242;DHT22;9755;47.790;9.620;2023-06-10T07:32:03;33.60;20.30
19242;DHT22;9755;47.790;9.620;2023-06-10T07:34:31;33.60;19.00
19242;DHT22;9755;47.790;9.620;2023-06-10T07:36:58;34.00;18.90
19242;DHT22;9755;47.790;9.620;2023-06-10T07:39:26;33.90;18.20
19242;DHT22;9755;47.790;9.620;2023-06-10T07:41:53;33.80;18.50
19242;DHT22;9755;47.790;9.620;2023-06-10T07:44:22;33.10;18.20
19242;DHT22;9755;47.790;9.620;2023-06-10T07:46:49;33.80;18.20
19242;DHT22;9755;47.790;9.620;2023-06-10T07:49:16;34.00;17.20
19242;DHT22;9755;47.790;9.620;2023-06-10T07:51:44;34.00;17.00
19242;DHT22;9755;47.790;9.620;2023-06-10T07:54:11;34.90;16.40
19242;DHT22;9755;47.790;9.620;2023-06-10T07:56:40;34.30;16.00
19242;DHT22;9755;47.790;9.620;2023-06-10T07:59:07;35.10;15.50
19242;DHT22;9755;47.790;9.620;2023-06-10T08:01:34;35.80;14.40
19242;DHT22;9755;47.790;9.620;2023-06-10T08:04:05;35.60;12.70
19242;DHT22;9755;47.790;9.620;2023-06-10T08:06:32;35.20;11.50
19242;DHT22;9755;47.790;9.620;2023-06-10T08:08:59;34.60;12.70
19242;DHT22;9755;47.790;9.620;2023-06-10T08:11:26;35.60;11.70
19242;DHT22;9755;47.790;9.620;2023-06-10T08:13:56;33.40;11.60
19242;DHT22;9755;47.790;9.620;2023-06-10T08:16:23;31.10;13.00
19242;DHT22;9755;47.790;9.620;2023-06-10T08:18:50;29.90;15.00
19242;DHT22;9755;47.790;9.620;2023-06-10T08:21:17;31.40;16.30
19242;DHT22;9755;47.790;9.620;2023-06-10T08:23:45;33.50;14.20
19242;DHT22;9755;47.790;9.620;2023-06-10T08:26:12;35.20;12.50
19242;DHT22;9755;47.790;9.620;2023-06-10T08:28:39;35.00;11.60
19242;DHT22;9755;47.790;9.620;2023-06-10T08:31:07;35.80;11.70
19242;DHT22;9755;47.790;9.620;2023-06-10T08:33:36;36.60;9.40
19242;DHT22;9755;47.790;9.620;2023-06-10T08:36:03;36.80;8.90
19242;DHT22;9755;47.790;9.620;2023-06-10T08:38:30;35.40;8.80
19242;DHT22;9755;47.790;9.620;2023-06-10T08:40:59;34.50;8.50
19242;DHT22;9755;47.790;9.620;2023-06-10T08:43:33;35.20;9.90
19242;DHT22;9755;47.790;9.620;2023-06-10T08:48:30;35.90;7.50
19242;DHT22;9755;47.790;9.620;2023-06-10T08:51:01;38.30;6.00
19242;DHT22;9755;47.790;9.620;2023-06-10T08:53:34;35.90;2.70
19242;DHT22;9755;47.790;9.620;2023-06-10T08:56:04;31.20;4.60
19242;DHT22;9755;47.790;9.620;2023-06-10T08:58:32;29.40;5.70
19242;DHT22;9755;47.790;9.620;2023-06-10T09:01:06;29.80;7.90
19242;DHT22;9755;47.790;9.620;2023-06-10T09:03:35;29.30;9.60
19242;DHT22;9755;47.790;9.620;2023-06-10T09:06:04;30.80;9.20
19242;DHT22;9755;47.790;9.620;2023-06-10T09:08:33;32.40;7.40
19242;DHT22;9755;47.790;9.620;2023-06-10T09:11:00;33.40;6.80
19242;DHT22;9755;47.790;9.620;2023-06-10T09:13:27;32.50;6.20
19242;DHT22;9755;47.790;9.620;2023-06-10T09:15:55;31.40;6.30
19242;DHT22;9755;47.790;9.620;2023-06-10T09:18:26;30.60;7.10
19242;DHT22;9755;47.790;9.620;2023-06-10T09:20:55;31.00;7.10
19242;DHT22;9755;47.790;9.620;2023-06-10T09:23:22;32.60;7.20
19242;DHT22;9755;47.790;9.620;2023-06-10T09:25:56;32.90;7.50
19242;DHT22;9755;47.790;9.620;2023-06-10T09:28:24;34.60;7.60
19242;DHT22;9755;47.790;9.620;2023-06-10T09:31:02;33.70;6.00
19242;DHT22;9755;47.790;9.620;2023-06-10T09:33:29;33.60;5.70
19242;DHT22;9755;47.790;9.620;2023-06-10T09:35:57;33.90;5.90
19242;DHT22;9755;47.790;9.620;2023-06-10T09:38:30;34.30;5.90
19242;DHT22;9755;47.790;9.620;2023-06-10T09:40:57;34.10;4.60
19242;DHT22;9755;47.790;9.620;2023-06-10T09:43:38;33.40;4.70
19242;DHT22;9755;47.790;9.620;2023-06-10T09:46:06;32.90;4.80
19242;DHT22;9755;47.790;9.620;2023-06-10T09:48:35;32.30;5.60
19242;DHT22;9755;47.790;9.620;2023-06-10T09:51:08;31.90;5.80
19242;DHT22;9755;47.790;9.620;2023-06-10T09:53:36;32.00;5.40
19242;DHT22;9755;47.790;9.620;2023-06-10T09:56:03;32.30;4.90
19242;DHT22;9755;47.790;9.620;2023-06-10T09:58:35;32.90;5.80
19242;DHT22;9755;47.790;9.620;2023-06-10T10:01:05;33.20;5.50
19242;DHT22;9755;47.790;9.620;2023-06-10T10:03:32;34.20;3.70
19242;DHT22;9755;47.790;9.620;2023-06-10T10:06:00;32.60;3.20
19242;DHT22;9755;47.790;9.620;2023-06-10T10:08:28;31.50;4.00
19242;DHT22;9755;47.790;9.620;2023-06-10T10:10:57;29.70;5.00
19242;DHT22;9755;47.790;9.620;2023-06-10T10:13:26;28.40;6.40
19242;DHT22;9755;47.790;9.620;2023-06-10T10:15:55;28.70;6.60
19242;DHT22;9755;47.790;9.620;2023-06-10T10:18:24;28.30;7.00
19242;DHT22;9755;47.790;9.620;2023-06-10T10:20:59;30.20;6.80
19242;DHT22;9755;47.790;9.620;2023-06-10T10:23:31;32.00;5.40
19242;DHT22;9755;47.790;9.620;2023-06-10T10:26:00;32.70;5.30
19242;DHT22;9755;47.790;9.620;2023-06-10T10:28:46;33.60;4.20
19242;DHT22;9755;47.790;9.620;2023-06-10T10:31:18;33.20;2.50
19242;DHT22;9755;47.790;9.620;2023-06-10T10:33:51;31.90;2.70
19242;DHT22;9755;47.790;9.620;2023-06-10T10:36:22;30.20;5.90
19242;DHT22;9755;47.790;9.620;2023-06-10T10:38:50;30.00;6.60
19242;DHT22;9755;47.790;9.620;2023-06-10T10:41:18;28.90;7.20
19242;DHT22;9755;47.790;9.620;2023-06-10T10:43:46;28.80;8.10
19242;DHT22;9755;47.790;9.620;2023-06-10T10:46:16;29.80;7.90
19242;DHT22;9755;47.790;9.620;2023-06-10T10:48:44;30.80;8.70
19242;DHT22;9755;47.790;9.620;2023-06-10T10:51:12;32.00;7.10
19242;DHT22;9755;47.790;9.620;2023-06-10T10:53:42;31.50;6.60
19242;DHT22;9755;47.790;9.620;2023-06-10T10:56:15;33.10;5.30
19242;DHT22;9755;47.790;9.620;2023-06-10T10:59:03;32.20;4.50
19242;DHT22;9755;47.790;9.620;2023-06-10T11:01:40;31.10;5.30
19242;DHT22;9755;47.790;9.620;2023-06-10T11:04:08;30.70;6.10
19242;DHT22;9755;47.790;9.620;2023-06-10T11:06:35;31.20;5.90
19242;DHT22;9755;47.790;9.620;2023-06-10T11:09:25;32.00;5.20
19242;DHT22;9755;47.790;9.620;2023-06-10T11:11:57;33.70;4.90
19242;DHT22;9755;47.790;9.620;2023-06-10T11:16:58;33.80;3.10
19242;DHT22;9755;47.790;9.620;2023-06-10T11:19:34;36.40;2.50
19242;DHT22;9755;47.790;9.620;2023-06-10T11:22:05;35.10;1.00
19242;DHT22;9755;47.790;9.620;2023-06-10T11:24:34;33.70;1.60
19242;DHT22;9755;47.790;9.620;2023-06-10T11:27:18;34.30;2.70
19242;DHT22;9755;47.790;9.620;2023-06-10T11:29:58;34.60;2.40
19242;DHT22;9755;47.790;9.620;2023-06-10T11:32:44;33.90;2.00
19242;DHT22;9755;47.790;9.620;2023-06-10T11:35:11;33.10;1.60
19242;DHT22;9755;47.790;9.620;2023-06-10T11:37:38;32.30;3.70
19242;DHT22;9755;47.790;9.620;2023-06-10T11:40:07;33.40;2.70
19242;DHT22;9755;47.790;9.620;2023-06-10T11:42:40;33.00;1.00
19242;DHT22;9755;47.790;9.620;2023-06-10T11:45:08;30.90;1.00
19242;DHT22;9755;47.790;9.620;2023-06-10T11:47:35;30.60;1.30
19242;DHT22;9755;47.790;9.620;2023-06-10T11:50:02;29.70;1.70
19242;DHT22;9755;47.790;9.620;2023-06-10T11:52:30;29.10;2.00
19242;DHT22;9755;47.790;9.620;2023-06-10T11:55:00;29.70;2.50
19242;DHT22;9755;47.790;9.620;2023-06-10T11:57:27;30.00;2.90
19242;DHT22;9755;47.790;9.620;2023-06-10T11:59:55;31.10;2.50
19242;DHT22;9755;47.790;9.620;2023-06-10T12:02:26;31.30;2.80
19242;DHT22;9755;47.790;9.620;2023-06-10T12:05:10;30.60;2.30
19242;DHT22;9755;47.790;9.620;2023-06-10T12:07:37;30.80;3.50
19242;DHT22;9755;47.790;9.620;2023-06-10T12:10:04;32.00;3.80
19242;DHT22;9755;47.790;9.620;2023-06-10T12:12:34;33.10;2.00
19242;DHT22;9755;47.790;9.620;2023-06-10T12:15:04;34.00;1.20
19242;DHT22;9755;47.790;9.620;2023-06-10T12:17:36;35.00;1.00
19242;DHT22;9755;47.790;9.620;2023-06-10T12:20:05;33.10;1.00
19242;DHT22;9755;47.790;9.620;2023-06-10T12:22:37;33.10;1.00
19242;DHT22;9755;47.790;9.620;2023-06-10T12:25:06;31.90;1.20
19242;DHT22;9755;47.790;9.620;2023-06-10T12:27:35;29.50;2.00
19242;DHT22;9755;47.790;9.620;2023-06-10T12:30:05;27.50;3.40
19242;DHT22;9755;47.790;9.620;2023-06-10T12:32:37;27.20;4.40
19242;DHT22;9755;47.790;9.620;2023-06-10T12:35:06;27.10;5.20
19242;DHT22;9755;47.790;9.620;2023-06-10T12:37:33;27.30;4.40
19242;DHT22;9755;47.790;9.620;2023-06-10T12:40:01;27.70;4.10
19242;DHT22;9755;47.790;9.620;2023-06-10T12:42:29;28.80;3.60
19242;DHT22;9755;47.790;9.620;2023-06-10T12:45:00;30.30;3.70
19242;DHT22;9755;47.790;9.620;2023-06-10T12:47:32;31.30;3.90
19242;DHT22;9755;47.790;9.620;2023-06-10T12:50:01;30.80;4.00
19242;DHT22;9755;47.790;9.620;2023-06-10T12:52:28;30.60;4.40
19242;DHT22;9755;47.790;9.620;2023-06-10T12:54:55;30.70;3.10
19242;DHT22;9755;47.790;9.620;2023-06-10T12:57:23;30.20;3.00
19242;DHT22;9755;47.790;9.620;2023-06-10T12:59:50;29.50;3.70
19242;DHT22;9755;47.790;9.620;2023-06-10T13:02:18;30.10;4.60
19242;DHT22;9755;47.790;9.620;2023-06-10T13:04:47;30.70;2.80
19242;DHT22;9755;47.790;9.620;2023-06-10T13:07:15;31.70;3.30
19242;DHT22;9755;47.790;9.620;2023-06-10T13:09:42;32.50;2.40
19242;DHT22;9755;47.790;9.620;2023-06-10T13:12:09;33.00;2.10
19242;DHT22;9755;47.790;9.620;2023-06-10T13:14:40;33.10;2.50
19242;DHT22;9755;47.790;9.620;2023-06-10T13:17:07;33.40;2.60
19242;DHT22;9755;47.790;9.620;2023-06-10T13:19:34;32.60;1.60
19242;DHT22;9755;47.790;9.620;2023-06-10T13:22:02;32.10;1.10
19242;DHT22;9755;47.790;9.620;2023-06-10T13:24:29;30.30;1.40
19242;DHT22;9755;47.790;9.620;2023-06-10T13:26:56;30.10;2.50
19242;DHT22;9755;47.790;9.620;2023-06-10T13:29:23;30.90;2.70
19242;DHT22;9755;47.790;9.620;2023-06-10T13:31:50;31.30;2.60
19242;DHT22;9755;47.790;9.620;2023-06-10T13:34:17;32.30;2.10
19242;DHT22;9755;47.790;9.620;2023-06-10T13:36:44;31.40;1.50
19242;DHT22;9755;47.790;9.620;2023-06-10T13:39:13;30.50;2.10
19242;DHT22;9755;47.790;9.620;2023-06-10T13:41:40;29.50;2.10
19242;DHT22;9755;47.790;9.620;2023-06-10T13:44:09;28.60;2.80
19242;DHT22;9755;47.790;9.620;2023-06-10T13:46:36;28.40;2.90
19242;DHT22;9755;47.790;9.620;2023-06-10T13:49:03;29.00;3.40
19242;DHT22;9755;47.790;9.620;2023-06-10T13:51:30;30.00;3.00
19242;DHT22;9755;47.790;9.620;2023-06-10T13:53:57;29.90;2.30
19242;DHT22;9755;47.790;9.620;2023-06-10T13:56:25;29.70;1.60
19242;DHT22;9755;47.790;9.620;2023-06-10T13:58:53;30.20;1.60
19242;DHT22;9755;47.790;9.620;2023-06-10T14:01:20;31.10;1.60
19242;DHT22;9755;47.790;9.620;2023-06-10T14:03:47;31.20;1.00
19242;DHT22;9755;47.790;9.620;2023-06-10T14:06:14;31.70;1.40
19242;DHT22;9755;47.790;9.620;2023-06-10T14:08:44;31.70;1.10
19242;DHT22;9755;47.790;9.620;2023-06-10T14:11:11;31.80;1.70
19242;DHT22;9755;47.790;9.620;2023-06-10T14:13:40;31.10;1.00
19242;DHT22;9755;47.790;9.620;2023-06-10T14:16:07;30.60;1.00
19242;DHT22;9755;47.790;9.620;2023-06-10T14:18:34;29.40;1.60
19242;DHT22;9755;47.790;9.620;2023-06-10T14:21:01;29.80;2.20
19242;DHT22;9755;47.790;9.620;2023-06-10T14:23:28;30.50;2.60
19242;DHT22;9755;47.790;9.620;2023-06-10T14:25:58;31.10;1.00
19242;DHT22;9755;47.790;9.620;2023-06-10T14:28:27;30.10;1.80
19242;DHT22;9755;47.790;9.620;2023-06-10T14:30:56;30.60;1.50
19242;DHT22;9755;47.790;9.620;2023-06-10T14:33:23;30.00;1.50
19242;DHT22;9755;47.790;9.620;2023-06-10T14:35:50;29.80;2.70
19242;DHT22;9755;47.790;9.620;2023-06-10T14:38:17;30.50;2.30
19242;DHT22;9755;47.790;9.620;2023-06-10T14:40:44;31.00;1.90
19242;DHT22;9755;47.790;9.620;2023-06-10T14:43:11;30.60;1.00
19242;DHT22;9755;47.790;9.620;2023-06-10T14:45:39;30.10;1.00
19242;DHT22;9755;47.790;9.620;2023-06-10T14:48:08;29.60;1.00
19242;DHT22;9755;47.790;9.620;2023-06-10T14:50:35;29.20;1.00
19242;DHT22;9755;47.790;9.620;2023-06-10T14:53:02;28.90;1.00
19242;DHT22;9755;47.790;9.620;2023-06-10T14:55:29;29.50;1.00
19242;DHT22;9755;47.790;9.620;2023-06-10T14:57:56;29.60;1.00
19242;DHT22;9755;47.790;9.620;2023-06-10T15:00:23;29.50;1.00
19242;DHT22;9755;47.790;9.620;2023-06-10T15:02:51;29.00;2.20
19242;DHT22;9755;47.790;9.620;2023-06-10T15:05:20;28.30;2.90
19242;DHT22;9755;47.790;9.620;2023-06-10T15:07:47;28.00;3.90
19242;DHT22;9755;47.790;9.620;2023-06-10T15:10:14;27.80;4.10
19242;DHT22;9755;47.790;9.620;2023-06-10T15:12:41;27.70;4.20
19242;DHT22;9755;47.790;9.620;2023-06-10T15:15:09;28.20;4.50
19242;DHT22;9755;47.790;9.620;2023-06-10T15:17:38;28.60;4.70
19242;DHT22;9755;47.790;9.620;2023-06-10T15:20:07;28.80;4.50
19242;DHT22;9755;47.790;9.620;2023-06-10T15:22:35;28.90;5.40
19242;DHT22;9755;47.790;9.620;2023-06-10T15:25:03;29.20;4.80
19242;DHT22;9755;47.790;9.620;2023-06-10T15:27:30;29.30;4.90
19242;DHT22;9755;47.790;9.620;2023-06-10T15:29:57;28.60;3.30
19242;DHT22;9755;47.790;9.620;2023-06-10T15:32:24;27.80;3.50
19242;DHT22;9755;47.790;9.620;2023-06-10T15:34:54;27.20;3.40
19242;DHT22;9755;47.790;9.620;2023-06-10T15:37:21;27.00;3.30
19242;DHT22;9755;47.790;9.620;2023-06-10T15:39:49;27.10;3.70
19242;DHT22;9755;47.790;9.620;2023-06-10T15:42:16;27.70;3.80
19242;DHT22;9755;47.790;9.620;2023-06-10T15:44:43;28.30;3.90
19242;DHT22;9755;47.790;9.620;2023-06-10T15:47:11;28.70;3.90
19242;DHT22;9755;47.790;9.620;2023-06-10T15:49:38;29.10;4.30
19242;DHT22;9755;47.790;9.620;2023-06-10T15:52:08;29.30;4.10
19242;DHT22;9755;47.790;9.620;2023-06-10T15:54:36;30.00;4.30
19242;DHT22;9755;47.790;9.620;2023-06-10T15:57:05;29.60;2.80
19242;DHT22;9755;47.790;9.620;2023-06-10T15:59:33;28.90;2.20
19242;DHT22;9755;47.790;9.620;2023-06-10T16:02:01;28.40;3.70
19242;DHT22;9755;47.790;9.620;2023-06-10T16:04:29;27.90;2.80